sensor_id;sensor_type;location;lat;lon;timestamp;temperature;humidity
4904;DHT22;2467;48.142;11.616;2023-04-15T00:00:18;7.60;99.90
4904;DHT22;2467;48.142;11.616;2023-04-15T00:00:51;7.60;99.90
4904;DHT22;2467;48.142;11.616;2023-04-15T00:01:23;7.60;99.90
4904;DHT22;2467;48.142;11.616;2023-04-15T00:01:57;7.60;99.90
4904;DHT22;2467;48.142;11.616;2023-04-15T00:02:30;7.60;99.90
4904;DHT22;2467;48.142;11.616;2023-04-15T00:03:02;7.70;99.90
4904;DHT22;2467;48.142;11.616;2023-04-15T00:03:36;7.60;99.90
4904;DHT22;2467;48.142;11.616;2023-04-15T00:04:08;7.50;99.90
4904;DHT22;2467;48.142;11.616;2023-04-15T00:04:40;7.50;99.90
4904;DHT22;2467;48.142;11.616;2023-04-15T00:05:14;7.50;99.90
4904;DHT22;2467;48.142;11.616;2023-04-15T00:05:46;7.50;99.90
4904;DHT22;2467;48.142;11.616;2023-04-15T00:06:18;7.50;99.90
4904;DHT22;2467;48.142;11.616;2023-04-15T00:06:51;7.50;99.90
4904;DHT22;2467;48.142;11.616;2023-04-15T00:07:25;7.50;99.90
4904;DHT22;2467;48.142;11.616;2023-04-15T00:07:57;7.50;99.90
4904;DHT22;2467;48.142;11.616;2023-04-15T00:08:31;7.50;99.90
4904;DHT22;2467;48.142;11.616;2023-04-15T00:09:04;7.50;99.90
4904;DHT22;2467;48.142;11.616;2023-04-15T00:09:36;7.50;99.90
4904;DHT22;2467;48.142;11.616;2023-04-15T00:10:08;7.50;99.90
4904;DHT22;2467;48.142;11.616;2023-04-15T00:10:41;7.50;99.90
4904;DHT22;2467;48.142;11.616;2023-04-15T00:11:14;7.50;99.90
4904;DHT22;2467;48.142;11.616;2023-04-15T00:11:47;7.50;99.90
4904;DHT22;2467;48.142;11.616;2023-04-15T00:12:20;7.50;99.90
4904;DHT22;2467;48.142;11.616;2023-04-15T00:12:52;7.50;99.90
4904;DHT22;2467;48.142;11.616;2023-04-15T00:13:24;7.50;99.90
4904;DHT22;2467;48.142;11.616;2023-04-15T00:13:56;7.50;99.90
4904;DHT22;2467;48.142;11.616;2023-04-15T00:14:29;7.40;99.90
4904;DHT22;2467;48.142;11.616;2023-04-15T00:15:01;7.40;99.90
4904;DHT22;2467;48.142;11.616;2023-04-15T00:15:34;7.40;99.90
4904;DHT22;2467;48.142;11.616;2023-04-15T00:16:09;7.40;99.90
4904;DHT22;2467;48.142;11.616;2023-04-15T00:16:41;7.60;99.90
4904;DHT22;2467;48.142;11.616;2023-04-15T00:17:14;7.40;99.90
4904;DHT22;2467;48.142;11.616;2023-04-15T00:17:46;7.40;99.90
4904;DHT22;2467;48.142;11.616;2023-04-15T00:18:18;7.50;99.90
4904;DHT22;2467;48.142;11.616;2023-04-15T00:18:50;7.50;99.90
4904;DHT22;2467;48.142;11.616;2023-04-15T00:19:23;7.40;99.90
4904;DHT22;2467;48.142;11.616;2023-04-15T00:19:54;7.40;99.90
4904;DHT22;2467;48.142;11.616;2023-04-15T00:20:26;7.30;99.90
4904;DHT22;2467;48.142;11.616;2023-04-15T00:20:59;7.30;99.90
4904;DHT22;2467;48.142;11.616;2023-04-15T00:21:31;7.30;99.90
4904;DHT22;2467;48.142;11.616;2023-04-15T00:22:03;7.30;99.90
4904;DHT22;2467;48.142;11.616;2023-04-15T00:22:36;7.30;99.90
4904;DHT22;2467;48.142;11.616;2023-04-15T00:23:08;7.40;99.90
4904;DHT22;2467;48.142;11.616;2023-04-15T00:23:41;7.30;99.90
4904;DHT22;2467;48.142;11.616;2023-04-15T00:24:14;7.30;99.90
4904;DHT22;2467;48.142;11.616;2023-04-15T00:24:46;7.30;99.90
4904;DHT22;2467;48.142;11.616;2023-04-15T00:25:18;7.30;99.90
4904;DHT22;2467;48.142;11.616;2023-04-15T00:25:51;7.30;99.90
4904;DHT22;2467;48.142;11.616;2023-04-15T00:26:23;7.30;99.90
4904;DHT22;2467;48.142;11.616;2023-04-15T00:26:55;7.30;99.90
4904;DHT22;2467;48.142;11.616;2023-04-15T00:27:27;7.30;99.90
4904;DHT22;2467;48.142;11.616;2023-04-15T00:28:00;7.30;99.90
4904;DHT22;2467;48.142;11.616;2023-04-15T00:28:32;7.20;99.90
4904;DHT22;2467;48.142;11.616;2023-04-15T00:29:04;7.20;99.90
4904;DHT22;2467;48.142;11.616;2023-04-15T00:29:37;7.20;99.90
4904;DHT22;2467;48.142;11.616;2023-04-15T00:30:09;7.20;99.90
4904;DHT22;2467;48.142;11.616;2023-04-15T00:30:42;7.20;99.90
4904;DHT22;2467;48.142;11.616;2023-04-15T00:31:15;7.30;99.90
4904;DHT22;2467;48.142;11.616;2023-04-15T00:31:47;7.30;99.90
4904;DHT22;2467;48.142;11.616;2023-04-15T00:32:19;7.30;99.90
4904;DHT22;2467;48.142;11.616;2023-04-15T00:32:52;7.30;99.90
4904;DHT22;2467;48.142;11.616;2023-04-15T00:33:24;7.30;99.90
4904;DHT22;2467;48.142;11.616;2023-04-15T00:33:56;7.30;99.90
4904;DHT22;2467;48.142;11.616;2023-04-15T00:34:28;7.30;99.90
4904;DHT22;2467;48.142;11.616;2023-04-15T00:35:01;7.30;99.90
4904;DHT22;2467;48.142;11.616;2023-04-15T00:35:32;7.30;99.90
4904;DHT22;2467;48.142;11.616;2023-04-15T00:36:06;7.30;99.90
4904;DHT22;2467;48.142;11.616;2023-04-15T00:36:39;7.30;99.90
4904;DHT22;2467;48.142;11.616;2023-04-15T00:37:10;7.30;99.90
4904;DHT22;2467;48.142;11.616;2023-04-15T00:37:43;7.30;99.90
4904;DHT22;2467;48.142;11.616;2023-04-15T00:38:17;7.30;99.90
4904;DHT22;2467;48.142;11.616;2023-04-15T00:38:50;7.40;99.90
4904;DHT22;2467;48.142;11.616;2023-04-15T00:39:22;7.30;99.90
4904;DHT22;2467;48.142;11.616;2023-04-15T00:39:55;7.30;99.90
4904;DHT22;2467;48.142;11.616;2023-04-15T00:40:27;7.30;99.90
4904;DHT22;2467;48.142;11.616;2023-04-15T00:40:59;7.30;99.90
4904;DHT22;2467;48.142;11.616;2023-04-15T00:41:32;7.30;99.90
4904;DHT22;2467;48.142;11.616;2023-04-15T00:42:04;7.40;99.90
4904;DHT22;2467;48.142;11.616;2023-04-15T00:42:38;7.40;99.90
4904;DHT22;2467;48.142;11.616;2023-04-15T00:43:10;7.40;99.90
4904;DHT22;2467;48.142;11.616;2023-04-15T00:43:41;7.40;99.90
4904;DHT22;2467;48.142;11.616;2023-04-15T00:44:14;7.40;99.90
4904;DHT22;2467;48.142;11.616;2023-04-15T00:44:46;7.40;99.90
4904;DHT22;2467;48.142;11.616;2023-04-15T00:45:19;7.40;99.90
4904;DHT22;2467;48.142;11.616;2023-04-15T00:45:52;7.40;99.90
4904;DHT22;2467;48.142;11.616;2023-04-15T00:46:26;7.40;99.90
4904;DHT22;2467;48.142;11.616;2023-04-15T00:46:59;7.40;99.90
4904;DHT22;2467;48.142;11.616;2023-04-15T00:47:34;7.40;99.90
4904;DHT22;2467;48.142;11.616;2023-04-15T00:48:07;7.40;99.90
4904;DHT22;2467;48.142;11.616;2023-04-15T00:48:40;7.40;99.90
4904;DHT22;2467;48.142;11.616;2023-04-15T00:49:13;7.40;99.90
4904;DHT22;2467;48.142;11.616;2023-04-15T00:49:45;7.40;99.90
4904;DHT22;2467;48.142;11.616;2023-04-15T00:50:17;7.40;99.90
4904;DHT22;2467;48.142;11.616;2023-04-15T00:50:50;7.40;99.90
4904;DHT22;2467;48.142;11.616;2023-04-15T00:51:22;7.40;99.90
4904;DHT22;2467;48.142;11.616;2023-04-15T00:51:55;7.40;99.90
4904;DHT22;2467;48.142;11.616;2023-04-15T00:52:27;7.40;99.90
4904;DHT22;2467;48.142;11.616;2023-04-15T00:52:59;7.40;99.90
4904;DHT22;2467;48.142;11.616;2023-04-15T00:53:31;7.40;99.90
4904;DHT22;2467;48.142;11.616;2023-04-15T00:54:05;7.40;99.90
4904;DHT22;2467;48.142;11.616;2023-04-15T00:54:38;7.40;99.90
4904;DHT22;2467;48.142;11.616;2023-04-15T00:55:10;7.50;99.90
4904;DHT22;2467;48.142;11.616;2023-04-15T00:55:43;7.50;99.90
4904;DHT22;2467;48.142;11.616;2023-04-15T00:56:15;7.40;99.90
4904;DHT22;2467;48.142;11.616;2023-04-15T00:56:47;7.50;99.90
4904;DHT22;2467;48.142;11.616;2023-04-15T00:57:20;7.40;99.90
4904;DHT22;2467;48.142;11.616;2023-04-15T00:57:53;7.40;99.90
4904;DHT22;2467;48.142;11.616;2023-04-15T00:58:26;7.40;99.90
4904;DHT22;2467;48.142;11.616;2023-04-15T00:59:00;7.40;99.90
4904;DHT22;2467;48.142;11.616;2023-04-15T00:59:33;7.40;99.90
4904;DHT22;2467;48.142;11.616;2023-04-15T01:00:06;7.40;99.90
4904;DHT22;2467;48.142;11.616;2023-04-15T01:00:40;7.40;99.90
4904;DHT22;2467;48.142;11.616;2023-04-15T01:01:12;7.40;99.90
4904;DHT22;2467;48.142;11.616;2023-04-15T01:01:44;7.40;99.90
4904;DHT22;2467;48.142;11.616;2023-04-15T01:02:18;7.40;99.90
4904;DHT22;2467;48.142;11.616;2023-04-15T01:02:50;7.40;99.90
4904;DHT22;2467;48.142;11.616;2023-04-15T01:03:22;7.40;99.90
4904;DHT22;2467;48.142;11.616;2023-04-15T01:03:56;7.40;99.90
4904;DHT22;2467;48.142;11.616;2023-04-15T01:04:29;7.40;99.90
4904;DHT22;2467;48.142;11.616;2023-04-15T01:05:02;7.40;99.90
4904;DHT22;2467;48.142;11.616;2023-04-15T01:05:35;7.40;99.90
4904;DHT22;2467;48.142;11.616;2023-04-15T01:06:07;7.30;99.90
4904;DHT22;2467;48.142;11.616;2023-04-15T01:06:39;7.40;99.90
4904;DHT22;2467;48.142;11.616;2023-04-15T01:07:12;7.40;99.90
4904;DHT22;2467;48.142;11.616;2023-04-15T01:07:44;7.40;99.90
4904;DHT22;2467;48.142;11.616;2023-04-15T01:08:16;7.40;99.90
4904;DHT22;2467;48.142;11.616;2023-04-15T01:08:49;7.50;99.90
4904;DHT22;2467;48.142;11.616;2023-04-15T01:09:22;7.50;99.90
4904;DHT22;2467;48.142;11.616;2023-04-15T01:09:54;7.50;99.90
4904;DHT22;2467;48.142;11.616;2023-04-15T01:10:28;7.50;99.90
4904;DHT22;2467;48.142;11.616;2023-04-15T01:11:01;7.40;99.90
4904;DHT22;2467;48.142;11.616;2023-04-15T01:11:34;7.40;99.90
4904;DHT22;2467;48.142;11.616;2023-04-15T01:12:09;7.50;99.90
4904;DHT22;2467;48.142;11.616;2023-04-15T01:12:42;7.50;99.90
4904;DHT22;2467;48.142;11.616;2023-04-15T01:13:15;7.50;99.90
4904;DHT22;2467;48.142;11.616;2023-04-15T01:13:48;7.50;99.90
4904;DHT22;2467;48.142;11.616;2023-04-15T01:14:20;7.50;99.90
4904;DHT22;2467;48.142;11.616;2023-04-15T01:14:52;7.50;99.90
4904;DHT22;2467;48.142;11.616;2023-04-15T01:15:25;7.50;99.90
4904;DHT22;2467;48.142;11.616;2023-04-15T01:15:58;7.50;99.90
4904;DHT22;2467;48.142;11.616;2023-04-15T01:16:30;7.60;99.90
4904;DHT22;2467;48.142;11.616;2023-04-15T01:17:03;7.60;99.90
4904;DHT22;2467;48.142;11.616;2023-04-15T01:17:35;7.60;99.90
4904;DHT22;2467;48.142;11.616;2023-04-15T01:18:07;7.60;99.90
4904;DHT22;2467;48.142;11.616;2023-04-15T01:18:40;7.60;99.90
4904;DHT22;2467;48.142;11.616;2023-04-15T01:19:13;7.60;99.90
4904;DHT22;2467;48.142;11.616;2023-04-15T01:19:47;7.60;99.90
4904;DHT22;2467;48.142;11.616;2023-04-15T01:20:19;7.60;99.90
4904;DHT22;2467;48.142;11.616;2023-04-15T01:20:53;7.60;99.90
4904;DHT22;2467;48.142;11.616;2023-04-15T01:21:25;7.60;99.90
4904;DHT22;2467;48.142;11.616;2023-04-15T01:21:57;7.60;99.90
4904;DHT22;2467;48.142;11.616;2023-04-15T01:22:32;7.50;99.90
4904;DHT22;2467;48.142;11.616;2023-04-15T01:23:05;7.50;99.90
4904;DHT22;2467;48.142;11.616;2023-04-15T01:23:38;7.50;99.90
4904;DHT22;2467;48.142;11.616;2023-04-15T01:24:12;7.50;99.90
4904;DHT22;2467;48.142;11.616;2023-04-15T01:24:54;7.40;99.90
4904;DHT22;2467;48.142;11.616;2023-04-15T01:25:30;7.50;99.90
4904;DHT22;2467;48.142;11.616;2023-04-15T01:26:05;7.40;99.90
4904;DHT22;2467;48.142;11.616;2023-04-15T01:26:37;7.40;99.90
4904;DHT22;2467;48.142;11.616;2023-04-15T01:27:10;7.40;99.90
4904;DHT22;2467;48.142;11.616;2023-04-15T01:27:43;7.40;99.90
4904;DHT22;2467;48.142;11.616;2023-04-15T01:28:15;7.40;99.90
4904;DHT22;2467;48.142;11.616;2023-04-15T01:28:47;7.40;99.90
4904;DHT22;2467;48.142;11.616;2023-04-15T01:29:20;7.40;99.90
4904;DHT22;2467;48.142;11.616;2023-04-15T01:29:52;7.40;99.90
4904;DHT22;2467;48.142;11.616;2023-04-15T01:30:24;7.40;99.90
4904;DHT22;2467;48.142;11.616;2023-04-15T01:31:07;7.50;99.90
4904;DHT22;2467;48.142;11.616;2023-04-15T01:31:39;7.50;99.90
4904;DHT22;2467;48.142;11.616;2023-04-15T01:32:12;7.50;99.90
4904;DHT22;2467;48.142;11.616;2023-04-15T01:32:43;7.50;99.90
4904;DHT22;2467;48.142;11.616;2023-04-15T01:33:15;7.50;99.90
4904;DHT22;2467;48.142;11.616;2023-04-15T01:33:48;7.50;99.90
4904;DHT22;2467;48.142;11.616;2023-04-15T01:34:20;7.50;99.90
4904;DHT22;2467;48.142;11.616;2023-04-15T01:34:52;7.50;99.90
4904;DHT22;2467;48.142;11.616;2023-04-15T01:35:25;7.50;99.90
4904;DHT22;2467;48.142;11.616;2023-04-15T01:35:57;7.50;99.90
4904;DHT22;2467;48.142;11.616;2023-04-15T01:36:29;7.50;99.90
4904;DHT22;2467;48.142;11.616;2023-04-15T01:37:02;7.50;99.90
4904;DHT22;2467;48.142;11.616;2023-04-15T01:37:34;7.50;99.90
4904;DHT22;2467;48.142;11.616;2023-04-15T01:38:07;7.50;99.90
4904;DHT22;2467;48.142;11.616;2023-04-15T01:38:40;7.60;99.90
4904;DHT22;2467;48.142;11.616;2023-04-15T01:39:12;7.50;99.90
4904;DHT22;2467;48.142;11.616;2023-04-15T01:39:44;7.50;99.90
4904;DHT22;2467;48.142;11.616;2023-04-15T01:40:17;7.50;99.90
4904;DHT22;2467;48.142;11.616;2023-04-15T01:40:51;7.40;99.90
4904;DHT22;2467;48.142;11.616;2023-04-15T01:41:24;7.40;99.90
4904;DHT22;2467;48.142;11.616;2023-04-15T01:41:56;7.40;99.90
4904;DHT22;2467;48.142;11.616;2023-04-15T01:42:29;7.40;99.90
4904;DHT22;2467;48.142;11.616;2023-04-15T01:43:01;7.40;99.90
4904;DHT22;2467;48.142;11.616;2023-04-15T01:43:34;7.40;99.90
4904;DHT22;2467;48.142;11.616;2023-04-15T01:44:07;7.40;99.90
4904;DHT22;2467;48.142;11.616;2023-04-15T01:44:39;7.40;99.90
4904;DHT22;2467;48.142;11.616;2023-04-15T01:45:12;7.40;99.90
4904;DHT22;2467;48.142;11.616;2023-04-15T01:45:44;7.40;99.90
4904;DHT22;2467;48.142;11.616;2023-04-15T01:46:16;7.30;99.90
4904;DHT22;2467;48.142;11.616;2023-04-15T01:46:49;7.30;99.90
4904;DHT22;2467;48.142;11.616;2023-04-15T01:47:21;7.30;99.90
4904;DHT22;2467;48.142;11.616;2023-04-15T01:47:53;7.30;99.90
4904;DHT22;2467;48.142;11.616;2023-04-15T01:48:26;7.40;99.90
4904;DHT22;2467;48.142;11.616;2023-04-15T01:48:58;7.40;99.90
4904;DHT22;2467;48.142;11.616;2023-04-15T01:49:30;7.40;99.90
4904;DHT22;2467;48.142;11.616;2023-04-15T01:50:03;7.40;99.90
4904;DHT22;2467;48.142;11.616;2023-04-15T01:50:35;7.40;99.90
4904;DHT22;2467;48.142;11.616;2023-04-15T01:51:08;7.40;99.90
4904;DHT22;2467;48.142;11.616;2023-04-15T01:51:41;7.40;99.90
4904;DHT22;2467;48.142;11.616;2023-04-15T01:52:13;7.40;99.90
4904;DHT22;2467;48.142;11.616;2023-04-15T01:52:46;7.40;99.90
4904;DHT22;2467;48.142;11.616;2023-04-15T01:53:19;7.40;99.90
4904;DHT22;2467;48.142;11.616;2023-04-15T01:53:51;7.50;99.90
4904;DHT22;2467;48.142;11.616;2023-04-15T01:54:23;7.40;99.90
4904;DHT22;2467;48.142;11.616;2023-04-15T01:54:55;7.40;99.90
4904;DHT22;2467;48.142;11.616;2023-04-15T01:55:27;7.40;99.90
4904;DHT22;2467;48.142;11.616;2023-04-15T01:56:01;7.40;99.90
4904;DHT22;2467;48.142;11.616;2023-04-15T01:56:33;7.40;99.90
4904;DHT22;2467;48.142;11.616;2023-04-15T01:57:05;7.30;99.90
4904;DHT22;2467;48.142;11.616;2023-04-15T01:57:37;7.40;99.90
4904;DHT22;2467;48.142;11.616;2023-04-15T01:58:09;7.40;99.90
4904;DHT22;2467;48.142;11.616;2023-04-15T01:58:42;7.40;99.90
4904;DHT22;2467;48.142;11.616;2023-04-15T01:59:14;7.40;99.90
4904;DHT22;2467;48.142;11.616;2023-04-15T01:59:46;7.20;99.90
4904;DHT22;2467;48.142;11.616;2023-04-15T02:00:18;7.40;99.90
4904;DHT22;2467;48.142;11.616;2023-04-15T02:00:50;7.30;99.90
4904;DHT22;2467;48.142;11.616;2023-04-15T02:01:23;7.30;99.90
4904;DHT22;2467;48.142;11.616;2023-04-15T02:01:55;7.30;99.90
4904;DHT22;2467;48.142;11.616;2023-04-15T02:02:27;7.30;99.90
4904;DHT22;2467;48.142;11.616;2023-04-15T02:03:01;7.30;99.90
4904;DHT22;2467;48.142;11.616;2023-04-15T02:03:33;7.30;99.90
4904;DHT22;2467;48.142;11.616;2023-04-15T02:04:06;7.30;99.90
4904;DHT22;2467;48.142;11.616;2023-04-15T02:04:38;7.30;99.90
4904;DHT22;2467;48.142;11.616;2023-04-15T02:05:10;7.30;99.90
4904;DHT22;2467;48.142;11.616;2023-04-15T02:05:43;7.30;99.90
4904;DHT22;2467;48.142;11.616;2023-04-15T02:06:15;7.30;99.90
4904;DHT22;2467;48.142;11.616;2023-04-15T02:06:48;7.40;99.90
4904;DHT22;2467;48.142;11.616;2023-04-15T02:07:21;7.40;99.90
4904;DHT22;2467;48.142;11.616;2023-04-15T02:07:54;7.40;99.90
4904;DHT22;2467;48.142;11.616;2023-04-15T02:08:26;7.30;99.90
4904;DHT22;2467;48.142;11.616;2023-04-15T02:08:59;7.30;99.90
4904;DHT22;2467;48.142;11.616;2023-04-15T02:09:31;7.40;99.90
4904;DHT22;2467;48.142;11.616;2023-04-15T02:10:03;7.30;99.90
4904;DHT22;2467;48.142;11.616;2023-04-15T02:10:36;7.30;99.90
4904;DHT22;2467;48.142;11.616;2023-04-15T02:11:10;7.40;99.90
4904;DHT22;2467;48.142;11.616;2023-04-15T02:11:42;7.30;99.90
4904;DHT22;2467;48.142;11.616;2023-04-15T02:12:15;7.30;99.90
4904;DHT22;2467;48.142;11.616;2023-04-15T02:12:47;7.30;99.90
4904;DHT22;2467;48.142;11.616;2023-04-15T02:13:19;7.40;99.90
4904;DHT22;2467;48.142;11.616;2023-04-15T02:13:51;7.40;99.90
4904;DHT22;2467;48.142;11.616;2023-04-15T02:14:23;7.40;99.90
4904;DHT22;2467;48.142;11.616;2023-04-15T02:14:55;7.40;99.90
4904;DHT22;2467;48.142;11.616;2023-04-15T02:15:28;7.50;99.90
4904;DHT22;2467;48.142;11.616;2023-04-15T02:16:01;7.40;99.90
4904;DHT22;2467;48.142;11.616;2023-04-15T02:16:33;7.40;99.90
4904;DHT22;2467;48.142;11.616;2023-04-15T02:17:07;7.40;99.90
4904;DHT22;2467;48.142;11.616;2023-04-15T02:17:39;7.40;99.90
4904;DHT22;2467;48.142;11.616;2023-04-15T02:18:11;7.40;99.90
4904;DHT22;2467;48.142;11.616;2023-04-15T02:18:44;7.40;99.90
4904;DHT22;2467;48.142;11.616;2023-04-15T02:19:16;7.40;99.90
4904;DHT22;2467;48.142;11.616;2023-04-15T02:19:48;7.40;99.90
4904;DHT22;2467;48.142;11.616;2023-04-15T02:20:21;7.40;99.90
4904;DHT22;2467;48.142;11.616;2023-04-15T02:20:53;7.30;99.90
4904;DHT22;2467;48.142;11.616;2023-04-15T02:21:27;7.30;99.90
4904;DHT22;2467;48.142;11.616;2023-04-15T02:22:00;7.30;99.90
4904;DHT22;2467;48.142;11.616;2023-04-15T02:22:32;7.30;99.90
4904;DHT22;2467;48.142;11.616;2023-04-15T02:23:04;7.30;99.90
4904;DHT22;2467;48.142;11.616;2023-04-15T02:23:39;7.30;99.90
4904;DHT22;2467;48.142;11.616;2023-04-15T02:24:10;7.30;99.90
4904;DHT22;2467;48.142;11.616;2023-04-15T02:24:43;7.30;99.90
4904;DHT22;2467;48.142;11.616;2023-04-15T02:25:16;7.20;99.90
4904;DHT22;2467;48.142;11.616;2023-04-15T02:25:48;7.30;99.90
4904;DHT22;2467;48.142;11.616;2023-04-15T02:26:25;7.30;99.90
4904;DHT22;2467;48.142;11.616;2023-04-15T02:26:58;7.30;99.90
4904;DHT22;2467;48.142;11.616;2023-04-15T02:27:31;7.20;99.90
4904;DHT22;2467;48.142;11.616;2023-04-15T02:28:03;7.20;99.90
4904;DHT22;2467;48.142;11.616;2023-04-15T02:28:37;7.20;99.90
4904;DHT22;2467;48.142;11.616;2023-04-15T02:29:09;7.20;99.90
4904;DHT22;2467;48.142;11.616;2023-04-15T02:29:42;7.20;99.90
4904;DHT22;2467;48.142;11.616;2023-04-15T02:30:15;7.20;99.90
4904;DHT22;2467;48.142;11.616;2023-04-15T02:30:47;7.20;99.90
4904;DHT22;2467;48.142;11.616;2023-04-15T02:31:21;7.20;99.90
4904;DHT22;2467;48.142;11.616;2023-04-15T02:31:54;7.20;99.90
4904;DHT22;2467;48.142;11.616;2023-04-15T02:32:26;7.10;99.90
4904;DHT22;2467;48.142;11.616;2023-04-15T02:32:58;7.10;99.90
4904;DHT22;2467;48.142;11.616;2023-04-15T02:33:31;7.10;99.90
4904;DHT22;2467;48.142;11.616;2023-04-15T02:34:04;7.10;99.90
4904;DHT22;2467;48.142;11.616;2023-04-15T02:34:36;7.10;99.90
4904;DHT22;2467;48.142;11.616;2023-04-15T02:35:09;7.10;99.90
4904;DHT22;2467;48.142;11.616;2023-04-15T02:35:43;7.10;99.90
4904;DHT22;2467;48.142;11.616;2023-04-15T02:36:15;7.10;99.90
4904;DHT22;2467;48.142;11.616;2023-04-15T02:36:47;7.10;99.90
4904;DHT22;2467;48.142;11.616;2023-04-15T02:37:25;7.00;99.90
4904;DHT22;2467;48.142;11.616;2023-04-15T02:37:59;7.10;99.90
4904;DHT22;2467;48.142;11.616;2023-04-15T02:38:31;7.00;99.90
4904;DHT22;2467;48.142;11.616;2023-04-15T02:39:04;7.10;99.90
4904;DHT22;2467;48.142;11.616;2023-04-15T02:39:36;7.10;99.90
4904;DHT22;2467;48.142;11.616;2023-04-15T02:40:09;7.10;99.90
4904;DHT22;2467;48.142;11.616;2023-04-15T02:40:42;7.10;99.90
4904;DHT22;2467;48.142;11.616;2023-04-15T02:41:15;7.00;99.90
4904;DHT22;2467;48.142;11.616;2023-04-15T02:41:49;7.10;99.90
4904;DHT22;2467;48.142;11.616;2023-04-15T02:42:22;7.00;99.90
4904;DHT22;2467;48.142;11.616;2023-04-15T02:42:58;7.00;99.90
4904;DHT22;2467;48.142;11.616;2023-04-15T02:43:31;7.00;99.90
4904;DHT22;2467;48.142;11.616;2023-04-15T02:44:03;7.00;99.90
4904;DHT22;2467;48.142;11.616;2023-04-15T02:44:35;7.00;99.90
4904;DHT22;2467;48.142;11.616;2023-04-15T02:45:08;7.00;99.90
4904;DHT22;2467;48.142;11.616;2023-04-15T02:45:41;7.00;99.90
4904;DHT22;2467;48.142;11.616;2023-04-15T02:46:14;6.90;99.90
4904;DHT22;2467;48.142;11.616;2023-04-15T02:46:47;7.00;99.90
4904;DHT22;2467;48.142;11.616;2023-04-15T02:47:22;7.00;99.90
4904;DHT22;2467;48.142;11.616;2023-04-15T02:47:54;6.90;99.90
4904;DHT22;2467;48.142;11.616;2023-04-15T02:48:27;6.90;99.90
4904;DHT22;2467;48.142;11.616;2023-04-15T02:48:59;6.90;99.90
4904;DHT22;2467;48.142;11.616;2023-04-15T02:49:32;6.90;99.90
4904;DHT22;2467;48.142;11.616;2023-04-15T02:50:07;6.90;99.90
4904;DHT22;2467;48.142;11.616;2023-04-15T02:50:40;6.90;99.90
4904;DHT22;2467;48.142;11.616;2023-04-15T02:51:13;6.90;99.90
4904;DHT22;2467;48.142;11.616;2023-04-15T02:51:46;6.90;99.90
4904;DHT22;2467;48.142;11.616;2023-04-15T02:52:20;6.90;99.90
4904;DHT22;2467;48.142;11.616;2023-04-15T02:52:51;6.90;99.90
4904;DHT22;2467;48.142;11.616;2023-04-15T02:53:24;6.90;99.90
4904;DHT22;2467;48.142;11.616;2023-04-15T02:53:57;7.00;99.90
4904;DHT22;2467;48.142;11.616;2023-04-15T02:54:29;7.00;99.90
4904;DHT22;2467;48.142;11.616;2023-04-15T02:55:01;7.00;99.90
4904;DHT22;2467;48.142;11.616;2023-04-15T02:55:35;7.00;99.90
4904;DHT22;2467;48.142;11.616;2023-04-15T02:56:07;7.00;99.90
4904;DHT22;2467;48.142;11.616;2023-04-15T02:56:39;7.00;99.90
4904;DHT22;2467;48.142;11.616;2023-04-15T02:57:13;7.00;99.90
4904;DHT22;2467;48.142;11.616;2023-04-15T02:57:45;7.10;99.90
4904;DHT22;2467;48.142;11.616;2023-04-15T02:58:17;7.10;99.90
4904;DHT22;2467;48.142;11.616;2023-04-15T02:58:49;7.10;99.90
4904;DHT22;2467;48.142;11.616;2023-04-15T02:59:21;7.10;99.90
4904;DHT22;2467;48.142;11.616;2023-04-15T02:59:53;7.20;99.90
4904;DHT22;2467;48.142;11.616;2023-04-15T03:00:26;7.10;99.90
4904;DHT22;2467;48.142;11.616;2023-04-15T03:00:58;7.10;99.90
4904;DHT22;2467;48.142;11.616;2023-04-15T03:01:30;7.10;99.90
4904;DHT22;2467;48.142;11.616;2023-04-15T03:02:03;7.10;99.90
4904;DHT22;2467;48.142;11.616;2023-04-15T03:02:38;7.10;99.90
4904;DHT22;2467;48.142;11.616;2023-04-15T03:03:11;7.10;99.90
4904;DHT22;2467;48.142;11.616;2023-04-15T03:03:46;7.20;99.90
4904;DHT22;2467;48.142;11.616;2023-04-15T03:04:17;7.20;99.90
4904;DHT22;2467;48.142;11.616;2023-04-15T03:04:49;7.20;99.90
4904;DHT22;2467;48.142;11.616;2023-04-15T03:05:22;7.20;99.90
4904;DHT22;2467;48.142;11.616;2023-04-15T03:05:55;7.30;99.90
4904;DHT22;2467;48.142;11.616;2023-04-15T03:06:27;7.30;99.90
4904;DHT22;2467;48.142;11.616;2023-04-15T03:07:00;7.30;99.90
4904;DHT22;2467;48.142;11.616;2023-04-15T03:07:32;7.30;99.90
4904;DHT22;2467;48.142;11.616;2023-04-15T03:08:04;7.20;99.90
4904;DHT22;2467;48.142;11.616;2023-04-15T03:08:38;7.20;99.90
4904;DHT22;2467;48.142;11.616;2023-04-15T03:09:09;7.20;99.90
4904;DHT22;2467;48.142;11.616;2023-04-15T03:09:41;7.30;99.90
4904;DHT22;2467;48.142;11.616;2023-04-15T03:10:15;7.30;99.90
4904;DHT22;2467;48.142;11.616;2023-04-15T03:10:47;7.30;99.90
4904;DHT22;2467;48.142;11.616;2023-04-15T03:11:19;7.30;99.90
4904;DHT22;2467;48.142;11.616;2023-04-15T03:11:53;7.30;99.90
4904;DHT22;2467;48.142;11.616;2023-04-15T03:12:26;7.40;99.90
4904;DHT22;2467;48.142;11.616;2023-04-15T03:12:59;7.40;99.90
4904;DHT22;2467;48.142;11.616;2023-04-15T03:13:31;7.40;99.90
4904;DHT22;2467;48.142;11.616;2023-04-15T03:14:03;7.50;99.90
4904;DHT22;2467;48.142;11.616;2023-04-15T03:14:35;7.50;99.90
4904;DHT22;2467;48.142;11.616;2023-04-15T03:15:08;7.50;99.90
4904;DHT22;2467;48.142;11.616;2023-04-15T03:15:41;7.50;99.90
4904;DHT22;2467;48.142;11.616;2023-04-15T03:16:13;7.50;99.90
4904;DHT22;2467;48.142;11.616;2023-04-15T03:16:45;7.50;99.90
4904;DHT22;2467;48.142;11.616;2023-04-15T03:17:18;7.50;99.90
4904;DHT22;2467;48.142;11.616;2023-04-15T03:17:50;7.50;99.90
4904;DHT22;2467;48.142;11.616;2023-04-15T03:18:23;7.50;99.90
4904;DHT22;2467;48.142;11.616;2023-04-15T03:18:54;7.40;99.90
4904;DHT22;2467;48.142;11.616;2023-04-15T03:19:26;7.40;99.90
4904;DHT22;2467;48.142;11.616;2023-04-15T03:20:00;7.40;99.90
4904;DHT22;2467;48.142;11.616;2023-04-15T03:20:32;7.30;99.90
4904;DHT22;2467;48.142;11.616;2023-04-15T03:21:04;7.30;99.90
4904;DHT22;2467;48.142;11.616;2023-04-15T03:21:37;7.30;99.90
4904;DHT22;2467;48.142;11.616;2023-04-15T03:22:09;7.30;99.90
4904;DHT22;2467;48.142;11.616;2023-04-15T03:22:41;7.30;99.90
4904;DHT22;2467;48.142;11.616;2023-04-15T03:23:14;7.30;99.90
4904;DHT22;2467;48.142;11.616;2023-04-15T03:23:47;7.30;99.90
4904;DHT22;2467;48.142;11.616;2023-04-15T03:24:19;7.30;99.90
4904;DHT22;2467;48.142;11.616;2023-04-15T03:24:52;7.20;99.90
4904;DHT22;2467;48.142;11.616;2023-04-15T03:25:24;7.20;99.90
4904;DHT22;2467;48.142;11.616;2023-04-15T03:25:56;7.20;99.90
4904;DHT22;2467;48.142;11.616;2023-04-15T03:26:30;7.30;99.90
4904;DHT22;2467;48.142;11.616;2023-04-15T03:27:02;7.30;99.90
4904;DHT22;2467;48.142;11.616;2023-04-15T03:27:37;7.30;99.90
4904;DHT22;2467;48.142;11.616;2023-04-15T03:28:09;7.30;99.90
4904;DHT22;2467;48.142;11.616;2023-04-15T03:28:41;7.30;99.90
4904;DHT22;2467;48.142;11.616;2023-04-15T03:29:13;7.30;99.90
4904;DHT22;2467;48.142;11.616;2023-04-15T03:29:46;7.30;99.90
4904;DHT22;2467;48.142;11.616;2023-04-15T03:30:18;7.30;99.90
4904;DHT22;2467;48.142;11.616;2023-04-15T03:30:50;7.30;99.90
4904;DHT22;2467;48.142;11.616;2023-04-15T03:31:23;7.30;99.90
4904;DHT22;2467;48.142;11.616;2023-04-15T03:31:55;7.20;99.90
4904;DHT22;2467;48.142;11.616;2023-04-15T03:32:27;7.20;99.90
4904;DHT22;2467;48.142;11.616;2023-04-15T03:33:00;7.10;99.90
4904;DHT22;2467;48.142;11.616;2023-04-15T03:33:32;7.10;99.90